Bookmark and Share
Track history (hours):
 

MOL Partner

Last reported at 2014-Apr-19 02:17 UTC. Time now 2014-Apr-19 22:21 UTC.
Position N 01°13' E 103°28'.

Length 293 m; draft 13 m.

Type: Ship (hazmat cat D). MMSI: 371303000.

NotesDate/timePositionNaut miles runAvg speedWind from/ knotsBaromVisibWave heightAir tempDewpointWater temp
2014-Apr-19 02:17N 01°13' E 103°28'1318.7
2014-Apr-19 01:33N 01°10' E 103°41'1211.7
2014-Apr-19 00:33N 01°13' E 103°52'3 1.6
2014-Apr-18 22:31N 01°16' E 103°51'0 0.0
2014-Apr-18 21:25N 01°16' E 103°51'0 0.0
2014-Apr-18 19:31N 01°16' E 103°51'0 0.0
2014-Apr-18 18:16N 01°16' E 103°51'0 0.0
2014-Apr-18 15:25N 01°16' E 103°51'0 0.0
2014-Apr-18 14:25N 01°16' E 103°51'0 0.0
2014-Apr-18 13:31N 01°16' E 103°51'0 0.0
2014-Apr-18 12:07N 01°16' E 103°51'0 0.0
2014-Apr-18 11:31N 01°16' E 103°51'0 0.0
2014-Apr-18 04:31N 01°16' E 103°51'0 0.1
2014-Apr-18 03:29N 01°16' E 103°51'3 2.7
2014-Apr-18 02:33N 01°14' E 103°53'4 3.7
2014-Apr-18 01:33N 01°15' E 103°57'  
2014-Apr-14 17:32N 22°34' E 114°16'0 0.0
2014-Apr-14 15:32N 22°34' E 114°16'0 0.0
2014-Apr-14 14:32N 22°34' E 114°16'0 0.0
2014-Apr-14 10:32N 22°34' E 114°16'0 0.0
2014-Apr-14 09:32N 22°34' E 114°16'0 0.0
2014-Apr-14 08:32N 22°34' E 114°16'0 0.0
2014-Apr-14 07:32N 22°34' E 114°16'0 0.0
2014-Apr-14 06:32N 22°34' E 114°16'0 0.0
2014-Apr-14 05:32N 22°34' E 114°16'21 2.3
2014-Apr-13 20:12N 22°15' E 114°07'5 7.3
2014-Apr-13 19:32N 22°20' E 114°07'1 0.0
2014-Apr-12 11:07N 22°20' E 114°07'5 6.8
2014-Apr-12 10:21N 22°15' E 114°07'7 8.1
2014-Apr-12 09:33N 22°10' E 114°12'8 7.7
2014-Apr-12 08:32N 22°09' E 114°21'  

Dump ship's entire track history

sailing weather and tide predictions

MOL Partner — 3EBZ5 — position and weather